sensor_id;sensor_type;location;lat;lon;timestamp;P1;durP1;ratioP1;P2;durP2;ratioP2
35699;SDS011;21818;51.078;12.108;2023-06-26T00:02:19;5.45;;;4.05;;
35699;SDS011;21818;51.078;12.108;2023-06-26T00:04:45;5.07;;;4.00;;
35699;SDS011;21818;51.078;12.108;2023-06-26T00:07:11;6.57;;;4.15;;
35699;SDS011;21818;51.078;12.108;2023-06-26T00:09:36;5.47;;;3.90;;
35699;SDS011;21818;51.078;12.108;2023-06-26T00:12:02;5.07;;;3.63;;
35699;SDS011;21818;51.078;12.108;2023-06-26T00:14:28;6.30;;;3.72;;
35699;SDS011;21818;51.078;12.108;2023-06-26T00:16:54;5.28;;;3.78;;
35699;SDS011;21818;51.078;12.108;2023-06-26T00:19:20;6.78;;;3.20;;
35699;SDS011;21818;51.078;12.108;2023-06-26T00:21:45;5.53;;;3.42;;
35699;SDS011;21818;51.078;12.108;2023-06-26T00:24:14;6.07;;;4.18;;
35699;SDS011;21818;51.078;12.108;2023-06-26T00:26:40;10.32;;;3.80;;
35699;SDS011;21818;51.078;12.108;2023-06-26T00:29:05;7.47;;;3.70;;
35699;SDS011;21818;51.078;12.108;2023-06-26T00:31:31;6.22;;;3.50;;
35699;SDS011;21818;51.078;12.108;2023-06-26T00:33:57;7.20;;;4.07;;
35699;SDS011;21818;51.078;12.108;2023-06-26T00:36:22;9.35;;;4.57;;
35699;SDS011;21818;51.078;12.108;2023-06-26T00:38:48;7.45;;;3.70;;
35699;SDS011;21818;51.078;12.108;2023-06-26T00:41:15;7.45;;;3.80;;
35699;SDS011;21818;51.078;12.108;2023-06-26T00:43:40;7.47;;;3.63;;
35699;SDS011;21818;51.078;12.108;2023-06-26T00:46:08;6.20;;;3.90;;
35699;SDS011;21818;51.078;12.108;2023-06-26T00:48:36;10.20;;;4.38;;
35699;SDS011;21818;51.078;12.108;2023-06-26T00:51:02;6.93;;;3.95;;
35699;SDS011;21818;51.078;12.108;2023-06-26T00:53:27;5.45;;;3.88;;
35699;SDS011;21818;51.078;12.108;2023-06-26T00:55:53;5.15;;;3.65;;
35699;SDS011;21818;51.078;12.108;2023-06-26T00:58:20;9.02;;;4.28;;
35699;SDS011;21818;51.078;12.108;2023-06-26T01:00:48;6.97;;;4.20;;
35699;SDS011;21818;51.078;12.108;2023-06-26T01:03:14;8.77;;;4.43;;
35699;SDS011;21818;51.078;12.108;2023-06-26T01:05:40;8.50;;;4.05;;
35699;SDS011;21818;51.078;12.108;2023-06-26T01:08:06;8.63;;;4.07;;
35699;SDS011;21818;51.078;12.108;2023-06-26T01:10:33;6.22;;;3.65;;
35699;SDS011;21818;51.078;12.108;2023-06-26T01:12:59;6.30;;;3.92;;
35699;SDS011;21818;51.078;12.108;2023-06-26T01:15:25;8.15;;;4.10;;
35699;SDS011;21818;51.078;12.108;2023-06-26T01:17:50;6.45;;;4.45;;
35699;SDS011;21818;51.078;12.108;2023-06-26T01:20:17;6.10;;;4.00;;
35699;SDS011;21818;51.078;12.108;2023-06-26T01:28:32;6.70;;;4.00;;
35699;SDS011;21818;51.078;12.108;2023-06-26T01:31:00;5.63;;;3.95;;
35699;SDS011;21818;51.078;12.108;2023-06-26T01:33:27;7.25;;;3.83;;
35699;SDS011;21818;51.078;12.108;2023-06-26T01:35:53;11.10;;;4.55;;
35699;SDS011;21818;51.078;12.108;2023-06-26T01:38:19;11.65;;;4.20;;
35699;SDS011;21818;51.078;12.108;2023-06-26T01:40:46;7.18;;;3.78;;
35699;SDS011;21818;51.078;12.108;2023-06-26T01:46:04;9.07;;;4.68;;
35699;SDS011;21818;51.078;12.108;2023-06-26T01:48:37;8.85;;;4.28;;
35699;SDS011;21818;51.078;12.108;2023-06-26T01:51:07;10.07;;;3.83;;
35699;SDS011;21818;51.078;12.108;2023-06-26T01:53:36;11.00;;;4.60;;
35699;SDS011;21818;51.078;12.108;2023-06-26T01:56:06;8.82;;;3.83;;
35699;SDS011;21818;51.078;12.108;2023-06-26T01:58:37;8.55;;;3.60;;
35699;SDS011;21818;51.078;12.108;2023-06-26T02:01:07;12.95;;;3.65;;
35699;SDS011;21818;51.078;12.108;2023-06-26T02:03:33;11.55;;;4.15;;
35699;SDS011;21818;51.078;12.108;2023-06-26T02:05:59;15.23;;;4.82;;
35699;SDS011;21818;51.078;12.108;2023-06-26T02:08:24;12.90;;;4.40;;
35699;SDS011;21818;51.078;12.108;2023-06-26T02:10:50;10.75;;;5.05;;
35699;SDS011;21818;51.078;12.108;2023-06-26T02:13:15;7.18;;;4.13;;
35699;SDS011;21818;51.078;12.108;2023-06-26T02:15:41;12.43;;;4.93;;
35699;SDS011;21818;51.078;12.108;2023-06-26T02:18:06;11.65;;;4.53;;
35699;SDS011;21818;51.078;12.108;2023-06-26T02:20:32;9.07;;;4.43;;
35699;SDS011;21818;51.078;12.108;2023-06-26T02:22:58;10.20;;;4.30;;
35699;SDS011;21818;51.078;12.108;2023-06-26T02:25:24;11.00;;;4.35;;
35699;SDS011;21818;51.078;12.108;2023-06-26T02:27:49;11.25;;;4.70;;
35699;SDS011;21818;51.078;12.108;2023-06-26T02:30:15;12.85;;;4.55;;
35699;SDS011;21818;51.078;12.108;2023-06-26T02:32:40;12.23;;;4.85;;
35699;SDS011;21818;51.078;12.108;2023-06-26T02:35:06;14.57;;;4.78;;
35699;SDS011;21818;51.078;12.108;2023-06-26T02:37:32;11.65;;;5.32;;
35699;SDS011;21818;51.078;12.108;2023-06-26T02:39:58;11.20;;;4.10;;
35699;SDS011;21818;51.078;12.108;2023-06-26T02:42:23;12.80;;;4.00;;
35699;SDS011;21818;51.078;12.108;2023-06-26T02:44:49;13.25;;;4.60;;
35699;SDS011;21818;51.078;12.108;2023-06-26T02:47:14;13.32;;;4.90;;
35699;SDS011;21818;51.078;12.108;2023-06-26T02:49:40;13.00;;;4.60;;
35699;SDS011;21818;51.078;12.108;2023-06-26T02:52:05;11.85;;;5.38;;
35699;SDS011;21818;51.078;12.108;2023-06-26T02:54:31;8.10;;;4.57;;
35699;SDS011;21818;51.078;12.108;2023-06-26T02:56:57;13.43;;;5.10;;
35699;SDS011;21818;51.078;12.108;2023-06-26T02:59:24;12.13;;;5.00;;
35699;SDS011;21818;51.078;12.108;2023-06-26T03:01:50;14.63;;;4.72;;
35699;SDS011;21818;51.078;12.108;2023-06-26T03:04:15;7.63;;;4.55;;
35699;SDS011;21818;51.078;12.108;2023-06-26T03:06:42;7.55;;;5.18;;
35699;SDS011;21818;51.078;12.108;2023-06-26T03:09:08;12.65;;;4.90;;
35699;SDS011;21818;51.078;12.108;2023-06-26T03:11:34;10.93;;;4.47;;
35699;SDS011;21818;51.078;12.108;2023-06-26T03:13:59;8.15;;;4.30;;
35699;SDS011;21818;51.078;12.108;2023-06-26T03:16:25;9.55;;;4.35;;
35699;SDS011;21818;51.078;12.108;2023-06-26T03:18:50;7.93;;;4.68;;
35699;SDS011;21818;51.078;12.108;2023-06-26T03:21:16;9.82;;;4.90;;
35699;SDS011;21818;51.078;12.108;2023-06-26T03:23:42;7.15;;;4.45;;
35699;SDS011;21818;51.078;12.108;2023-06-26T03:26:08;17.58;;;4.97;;
35699;SDS011;21818;51.078;12.108;2023-06-26T03:28:33;9.30;;;4.82;;
35699;SDS011;21818;51.078;12.108;2023-06-26T03:30:59;8.73;;;4.80;;
35699;SDS011;21818;51.078;12.108;2023-06-26T03:33:24;9.45;;;4.60;;
35699;SDS011;21818;51.078;12.108;2023-06-26T03:35:50;8.05;;;4.22;;
35699;SDS011;21818;51.078;12.108;2023-06-26T03:38:15;7.70;;;4.55;;
35699;SDS011;21818;51.078;12.108;2023-06-26T03:40:41;8.25;;;4.75;;
35699;SDS011;21818;51.078;12.108;2023-06-26T03:43:06;7.15;;;4.00;;
35699;SDS011;21818;51.078;12.108;2023-06-26T03:45:32;8.48;;;4.50;;
35699;SDS011;21818;51.078;12.108;2023-06-26T03:47:58;10.07;;;4.78;;
35699;SDS011;21818;51.078;12.108;2023-06-26T03:50:23;9.00;;;4.70;;
35699;SDS011;21818;51.078;12.108;2023-06-26T03:52:49;12.30;;;4.63;;
35699;SDS011;21818;51.078;12.108;2023-06-26T03:55:15;9.00;;;4.78;;
35699;SDS011;21818;51.078;12.108;2023-06-26T03:57:42;11.20;;;4.43;;
35699;SDS011;21818;51.078;12.108;2023-06-26T04:00:08;10.48;;;3.92;;
35699;SDS011;21818;51.078;12.108;2023-06-26T04:02:34;10.07;;;5.13;;
35699;SDS011;21818;51.078;12.108;2023-06-26T04:05:00;10.57;;;5.15;;
35699;SDS011;21818;51.078;12.108;2023-06-26T04:07:26;6.57;;;4.00;;
35699;SDS011;21818;51.078;12.108;2023-06-26T04:09:52;10.80;;;4.82;;
35699;SDS011;21818;51.078;12.108;2023-06-26T04:12:17;13.25;;;4.07;;
35699;SDS011;21818;51.078;12.108;2023-06-26T04:14:43;8.70;;;4.57;;
35699;SDS011;21818;51.078;12.108;2023-06-26T04:17:09;8.95;;;5.47;;
35699;SDS011;21818;51.078;12.108;2023-06-26T04:19:35;10.77;;;4.93;;
35699;SDS011;21818;51.078;12.108;2023-06-26T04:22:01;12.20;;;5.05;;
35699;SDS011;21818;51.078;12.108;2023-06-26T04:24:27;11.20;;;4.68;;
35699;SDS011;21818;51.078;12.108;2023-06-26T04:26:53;10.05;;;4.70;;
35699;SDS011;21818;51.078;12.108;2023-06-26T04:29:22;8.30;;;5.35;;
35699;SDS011;21818;51.078;12.108;2023-06-26T04:31:50;11.68;;;5.82;;
35699;SDS011;21818;51.078;12.108;2023-06-26T04:34:16;9.23;;;4.95;;
35699;SDS011;21818;51.078;12.108;2023-06-26T04:36:42;12.23;;;4.65;;
35699;SDS011;21818;51.078;12.108;2023-06-26T04:39:11;8.98;;;4.60;;
35699;SDS011;21818;51.078;12.108;2023-06-26T04:41:37;6.10;;;4.13;;
35699;SDS011;21818;51.078;12.108;2023-06-26T04:44:02;12.60;;;5.45;;
35699;SDS011;21818;51.078;12.108;2023-06-26T04:46:28;9.00;;;4.80;;
35699;SDS011;21818;51.078;12.108;2023-06-26T04:48:53;10.98;;;4.70;;
35699;SDS011;21818;51.078;12.108;2023-06-26T04:51:19;8.65;;;4.40;;
35699;SDS011;21818;51.078;12.108;2023-06-26T04:53:45;8.57;;;5.03;;
35699;SDS011;21818;51.078;12.108;2023-06-26T04:56:11;9.13;;;5.28;;
35699;SDS011;21818;51.078;12.108;2023-06-26T04:58:36;12.48;;;5.43;;
35699;SDS011;21818;51.078;12.108;2023-06-26T05:01:02;7.97;;;4.65;;
35699;SDS011;21818;51.078;12.108;2023-06-26T05:03:31;9.77;;;4.90;;
35699;SDS011;21818;51.078;12.108;2023-06-26T05:05:57;11.43;;;4.65;;
35699;SDS011;21818;51.078;12.108;2023-06-26T05:08:24;6.45;;;4.97;;
35699;SDS011;21818;51.078;12.108;2023-06-26T05:10:52;10.05;;;5.55;;
35699;SDS011;21818;51.078;12.108;2023-06-26T05:13:23;9.85;;;5.13;;
35699;SDS011;21818;51.078;12.108;2023-06-26T05:15:49;7.55;;;4.78;;
35699;SDS011;21818;51.078;12.108;2023-06-26T05:18:16;6.75;;;4.53;;
35699;SDS011;21818;51.078;12.108;2023-06-26T05:20:42;11.55;;;5.47;;
35699;SDS011;21818;51.078;12.108;2023-06-26T05:23:08;10.55;;;4.95;;
35699;SDS011;21818;51.078;12.108;2023-06-26T05:25:36;9.50;;;5.00;;
35699;SDS011;21818;51.078;12.108;2023-06-26T05:28:02;6.55;;;4.78;;
35699;SDS011;21818;51.078;12.108;2023-06-26T05:30:30;6.13;;;4.82;;
35699;SDS011;21818;51.078;12.108;2023-06-26T05:32:56;7.55;;;4.95;;
35699;SDS011;21818;51.078;12.108;2023-06-26T05:35:25;17.33;;;5.47;;
35699;SDS011;21818;51.078;12.108;2023-06-26T05:37:55;21.30;;;5.53;;
35699;SDS011;21818;51.078;12.108;2023-06-26T05:40:21;19.00;;;6.35;;
35699;SDS011;21818;51.078;12.108;2023-06-26T05:42:47;20.70;;;7.10;;
35699;SDS011;21818;51.078;12.108;2023-06-26T05:45:13;15.65;;;5.70;;
35699;SDS011;21818;51.078;12.108;2023-06-26T05:47:39;16.83;;;5.82;;
35699;SDS011;21818;51.078;12.108;2023-06-26T05:50:05;21.00;;;5.85;;
35699;SDS011;21818;51.078;12.108;2023-06-26T05:52:32;14.73;;;5.28;;
35699;SDS011;21818;51.078;12.108;2023-06-26T05:54:58;14.57;;;5.57;;
35699;SDS011;21818;51.078;12.108;2023-06-26T05:57:25;16.02;;;6.10;;
35699;SDS011;21818;51.078;12.108;2023-06-26T05:59:55;15.63;;;5.33;;
35699;SDS011;21818;51.078;12.108;2023-06-26T06:02:21;13.63;;;5.43;;
35699;SDS011;21818;51.078;12.108;2023-06-26T06:04:47;14.20;;;5.28;;
35699;SDS011;21818;51.078;12.108;2023-06-26T06:07:12;11.95;;;4.90;;
35699;SDS011;21818;51.078;12.108;2023-06-26T06:09:38;17.25;;;5.53;;
35699;SDS011;21818;51.078;12.108;2023-06-26T06:12:04;12.27;;;4.85;;
35699;SDS011;21818;51.078;12.108;2023-06-26T06:14:31;11.05;;;5.13;;
35699;SDS011;21818;51.078;12.108;2023-06-26T06:16:57;14.63;;;5.57;;
35699;SDS011;21818;51.078;12.108;2023-06-26T06:19:22;12.75;;;4.95;;
35699;SDS011;21818;51.078;12.108;2023-06-26T06:21:48;12.70;;;5.03;;
35699;SDS011;21818;51.078;12.108;2023-06-26T06:24:14;13.65;;;5.70;;
35699;SDS011;21818;51.078;12.108;2023-06-26T06:26:39;11.85;;;5.45;;
35699;SDS011;21818;51.078;12.108;2023-06-26T06:29:05;13.88;;;5.43;;
35699;SDS011;21818;51.078;12.108;2023-06-26T06:31:31;9.82;;;4.80;;
35699;SDS011;21818;51.078;12.108;2023-06-26T06:33:56;10.43;;;5.00;;
35699;SDS011;21818;51.078;12.108;2023-06-26T06:36:22;11.27;;;5.10;;
35699;SDS011;21818;51.078;12.108;2023-06-26T06:38:48;13.65;;;5.60;;
35699;SDS011;21818;51.078;12.108;2023-06-26T06:41:13;14.32;;;5.05;;
35699;SDS011;21818;51.078;12.108;2023-06-26T06:43:39;11.90;;;4.72;;
35699;SDS011;21818;51.078;12.108;2023-06-26T06:46:04;15.05;;;5.10;;
35699;SDS011;21818;51.078;12.108;2023-06-26T06:48:31;10.20;;;4.38;;
35699;SDS011;21818;51.078;12.108;2023-06-26T06:50:57;11.05;;;4.78;;
35699;SDS011;21818;51.078;12.108;2023-06-26T06:53:22;11.02;;;4.53;;
35699;SDS011;21818;51.078;12.108;2023-06-26T06:55:50;9.32;;;4.53;;
35699;SDS011;21818;51.078;12.108;2023-06-26T06:58:16;11.35;;;4.47;;
35699;SDS011;21818;51.078;12.108;2023-06-26T07:00:44;9.50;;;5.03;;
35699;SDS011;21818;51.078;12.108;2023-06-26T07:03:09;9.98;;;5.18;;
35699;SDS011;21818;51.078;12.108;2023-06-26T07:05:35;8.95;;;4.57;;
35699;SDS011;21818;51.078;12.108;2023-06-26T07:08:01;9.45;;;4.60;;
35699;SDS011;21818;51.078;12.108;2023-06-26T07:10:26;11.00;;;4.32;;
35699;SDS011;21818;51.078;12.108;2023-06-26T07:12:52;10.13;;;4.82;;
35699;SDS011;21818;51.078;12.108;2023-06-26T07:15:17;9.25;;;4.30;;
35699;SDS011;21818;51.078;12.108;2023-06-26T07:17:43;10.23;;;4.57;;
35699;SDS011;21818;51.078;12.108;2023-06-26T07:20:09;8.95;;;4.00;;
35699;SDS011;21818;51.078;12.108;2023-06-26T07:22:40;8.93;;;4.63;;
35699;SDS011;21818;51.078;12.108;2023-06-26T07:25:05;9.60;;;4.82;;
35699;SDS011;21818;51.078;12.108;2023-06-26T07:27:34;8.63;;;4.43;;
35699;SDS011;21818;51.078;12.108;2023-06-26T07:30:03;10.43;;;4.85;;
35699;SDS011;21818;51.078;12.108;2023-06-26T07:32:29;7.32;;;3.85;;
35699;SDS011;21818;51.078;12.108;2023-06-26T07:34:54;10.15;;;4.70;;
35699;SDS011;21818;51.078;12.108;2023-06-26T07:37:20;9.57;;;4.55;;
35699;SDS011;21818;51.078;12.108;2023-06-26T07:39:45;8.35;;;4.47;;
35699;SDS011;21818;51.078;12.108;2023-06-26T07:42:12;10.63;;;5.00;;
35699;SDS011;21818;51.078;12.108;2023-06-26T07:44:37;9.88;;;4.75;;
35699;SDS011;21818;51.078;12.108;2023-06-26T07:47:03;9.63;;;4.85;;
35699;SDS011;21818;51.078;12.108;2023-06-26T07:49:29;8.80;;;4.03;;
35699;SDS011;21818;51.078;12.108;2023-06-26T07:51:54;8.50;;;4.13;;
35699;SDS011;21818;51.078;12.108;2023-06-26T07:54:20;7.00;;;4.55;;
35699;SDS011;21818;51.078;12.108;2023-06-26T07:57:04;8.43;;;4.15;;
35699;SDS011;21818;51.078;12.108;2023-06-26T07:59:31;8.63;;;4.38;;
35699;SDS011;21818;51.078;12.108;2023-06-26T08:01:57;7.65;;;4.13;;
35699;SDS011;21818;51.078;12.108;2023-06-26T08:04:25;11.20;;;4.90;;
35699;SDS011;21818;51.078;12.108;2023-06-26T08:06:52;7.20;;;4.05;;
35699;SDS011;21818;51.078;12.108;2023-06-26T08:09:19;10.45;;;4.20;;
35699;SDS011;21818;51.078;12.108;2023-06-26T08:11:46;7.90;;;4.50;;
35699;SDS011;21818;51.078;12.108;2023-06-26T08:14:12;6.72;;;4.22;;
35699;SDS011;21818;51.078;12.108;2023-06-26T08:16:38;8.05;;;4.13;;
35699;SDS011;21818;51.078;12.108;2023-06-26T08:19:04;8.57;;;4.75;;
35699;SDS011;21818;51.078;12.108;2023-06-26T08:21:30;10.00;;;4.10;;
35699;SDS011;21818;51.078;12.108;2023-06-26T08:23:56;8.38;;;4.50;;
35699;SDS011;21818;51.078;12.108;2023-06-26T08:26:21;6.65;;;3.90;;
35699;SDS011;21818;51.078;12.108;2023-06-26T08:28:47;7.47;;;3.60;;
35699;SDS011;21818;51.078;12.108;2023-06-26T08:31:12;8.98;;;5.03;;
35699;SDS011;21818;51.078;12.108;2023-06-26T08:33:38;6.82;;;4.00;;
35699;SDS011;21818;51.078;12.108;2023-06-26T08:36:04;6.88;;;3.70;;
35699;SDS011;21818;51.078;12.108;2023-06-26T08:38:29;10.63;;;4.43;;
35699;SDS011;21818;51.078;12.108;2023-06-26T08:40:55;8.45;;;3.90;;
35699;SDS011;21818;51.078;12.108;2023-06-26T08:43:20;8.45;;;4.20;;
35699;SDS011;21818;51.078;12.108;2023-06-26T08:45:47;8.23;;;3.60;;
35699;SDS011;21818;51.078;12.108;2023-06-26T08:48:16;7.65;;;4.18;;
35699;SDS011;21818;51.078;12.108;2023-06-26T08:50:42;10.65;;;3.88;;
35699;SDS011;21818;51.078;12.108;2023-06-26T08:56:19;7.90;;;3.87;;
35699;SDS011;21818;51.078;12.108;2023-06-26T08:58:47;6.55;;;3.85;;
35699;SDS011;21818;51.078;12.108;2023-06-26T09:01:13;8.27;;;4.40;;
35699;SDS011;21818;51.078;12.108;2023-06-26T09:03:38;8.05;;;4.00;;
35699;SDS011;21818;51.078;12.108;2023-06-26T09:06:06;8.82;;;4.10;;
35699;SDS011;21818;51.078;12.108;2023-06-26T09:08:32;6.53;;;3.65;;
35699;SDS011;21818;51.078;12.108;2023-06-26T09:10:57;6.45;;;3.60;;
35699;SDS011;21818;51.078;12.108;2023-06-26T09:13:23;9.10;;;4.07;;
35699;SDS011;21818;51.078;12.108;2023-06-26T09:15:49;7.68;;;4.32;;
35699;SDS011;21818;51.078;12.108;2023-06-26T09:18:18;9.55;;;4.18;;
35699;SDS011;21818;51.078;12.108;2023-06-26T09:20:44;6.13;;;3.60;;
35699;SDS011;21818;51.078;12.108;2023-06-26T09:23:10;8.45;;;3.67;;
35699;SDS011;21818;51.078;12.108;2023-06-26T09:25:38;7.13;;;3.88;;
35699;SDS011;21818;51.078;12.108;2023-06-26T09:28:04;7.03;;;4.13;;
35699;SDS011;21818;51.078;12.108;2023-06-26T09:30:32;5.50;;;3.40;;
35699;SDS011;21818;51.078;12.108;2023-06-26T09:33:07;8.18;;;3.80;;
35699;SDS011;21818;51.078;12.108;2023-06-26T09:35:38;6.47;;;3.92;;
35699;SDS011;21818;51.078;12.108;2023-06-26T09:38:04;6.97;;;3.70;;
35699;SDS011;21818;51.078;12.108;2023-06-26T09:40:30;7.07;;;3.47;;
35699;SDS011;21818;51.078;12.108;2023-06-26T09:43:02;8.10;;;4.22;;
35699;SDS011;21818;51.078;12.108;2023-06-26T09:45:28;6.45;;;3.63;;
35699;SDS011;21818;51.078;12.108;2023-06-26T09:47:59;6.57;;;3.58;;
35699;SDS011;21818;51.078;12.108;2023-06-26T09:50:27;7.35;;;3.97;;
35699;SDS011;21818;51.078;12.108;2023-06-26T09:52:54;6.32;;;3.70;;
35699;SDS011;21818;51.078;12.108;2023-06-26T09:55:20;9.82;;;3.90;;
35699;SDS011;21818;51.078;12.108;2023-06-26T09:57:51;7.43;;;3.83;;
35699;SDS011;21818;51.078;12.108;2023-06-26T10:00:18;7.00;;;4.27;;
35699;SDS011;21818;51.078;12.108;2023-06-26T10:02:44;7.78;;;4.03;;
35699;SDS011;21818;51.078;12.108;2023-06-26T10:05:10;8.85;;;4.03;;
35699;SDS011;21818;51.078;12.108;2023-06-26T10:07:35;6.72;;;3.78;;
35699;SDS011;21818;51.078;12.108;2023-06-26T10:10:03;6.82;;;3.47;;
35699;SDS011;21818;51.078;12.108;2023-06-26T10:12:31;6.88;;;3.92;;
35699;SDS011;21818;51.078;12.108;2023-06-26T10:14:58;5.13;;;3.30;;
35699;SDS011;21818;51.078;12.108;2023-06-26T10:17:30;7.82;;;4.07;;
35699;SDS011;21818;51.078;12.108;2023-06-26T10:20:00;6.95;;;3.95;;
35699;SDS011;21818;51.078;12.108;2023-06-26T10:22:29;5.97;;;3.20;;
35699;SDS011;21818;51.078;12.108;2023-06-26T10:24:58;6.47;;;3.40;;
35699;SDS011;21818;51.078;12.108;2023-06-26T10:27:26;7.00;;;3.95;;
35699;SDS011;21818;51.078;12.108;2023-06-26T10:29:58;7.68;;;3.75;;
35699;SDS011;21818;51.078;12.108;2023-06-26T10:32:28;8.68;;;3.80;;
35699;SDS011;21818;51.078;12.108;2023-06-26T10:34:54;6.78;;;3.78;;
35699;SDS011;21818;51.078;12.108;2023-06-26T10:37:21;6.55;;;3.88;;
35699;SDS011;21818;51.078;12.108;2023-06-26T10:40:05;6.15;;;3.47;;
35699;SDS011;21818;51.078;12.108;2023-06-26T10:42:34;6.88;;;3.67;;
35699;SDS011;21818;51.078;12.108;2023-06-26T10:45:15;5.85;;;3.38;;
35699;SDS011;21818;51.078;12.108;2023-06-26T10:47:44;6.40;;;3.47;;
35699;SDS011;21818;51.078;12.108;2023-06-26T10:50:22;5.78;;;3.83;;
35699;SDS011;21818;51.078;12.108;2023-06-26T10:53:06;7.88;;;3.75;;
35699;SDS011;21818;51.078;12.108;2023-06-26T10:55:32;7.30;;;3.67;;
35699;SDS011;21818;51.078;12.108;2023-06-26T10:57:58;4.97;;;3.45;;
35699;SDS011;21818;51.078;12.108;2023-06-26T11:00:23;5.13;;;3.47;;
35699;SDS011;21818;51.078;12.108;2023-06-26T11:02:52;5.68;;;3.88;;
35699;SDS011;21818;51.078;12.108;2023-06-26T11:05:28;5.20;;;3.05;;
35699;SDS011;21818;51.078;12.108;2023-06-26T11:08:04;5.68;;;3.47;;
35699;SDS011;21818;51.078;12.108;2023-06-26T11:10:52;6.07;;;3.38;;
35699;SDS011;21818;51.078;12.108;2023-06-26T11:13:19;7.00;;;3.92;;
35699;SDS011;21818;51.078;12.108;2023-06-26T11:15:49;5.32;;;3.25;;
35699;SDS011;21818;51.078;12.108;2023-06-26T11:18:15;6.70;;;3.47;;
35699;SDS011;21818;51.078;12.108;2023-06-26T11:20:41;5.65;;;3.90;;
35699;SDS011;21818;51.078;12.108;2023-06-26T11:23:07;6.55;;;3.70;;
35699;SDS011;21818;51.078;12.108;2023-06-26T11:25:37;5.88;;;3.47;;
35699;SDS011;21818;51.078;12.108;2023-06-26T11:28:05;6.38;;;3.67;;
35699;SDS011;21818;51.078;12.108;2023-06-26T11:30:35;5.35;;;3.35;;
35699;SDS011;21818;51.078;12.108;2023-06-26T11:33:05;5.78;;;3.63;;
35699;SDS011;21818;51.078;12.108;2023-06-26T11:35:32;6.03;;;3.95;;
35699;SDS011;21818;51.078;12.108;2023-06-26T11:37:58;5.00;;;3.00;;
35699;SDS011;21818;51.078;12.108;2023-06-26T11:42:59;5.57;;;3.28;;
35699;SDS011;21818;51.078;12.108;2023-06-26T11:45:28;5.72;;;3.33;;
35699;SDS011;21818;51.078;12.108;2023-06-26T11:47:55;4.25;;;3.08;;
35699;SDS011;21818;51.078;12.108;2023-06-26T11:50:22;4.60;;;3.05;;
35699;SDS011;21818;51.078;12.108;2023-06-26T11:52:57;5.25;;;3.55;;
35699;SDS011;21818;51.078;12.108;2023-06-26T11:55:24;6.40;;;3.72;;
35699;SDS011;21818;51.078;12.108;2023-06-26T11:57:54;4.20;;;2.88;;
35699;SDS011;21818;51.078;12.108;2023-06-26T12:00:20;5.78;;;3.53;;
35699;SDS011;21818;51.078;12.108;2023-06-26T12:02:46;3.97;;;3.10;;
35699;SDS011;21818;51.078;12.108;2023-06-26T12:05:15;3.75;;;3.05;;
35699;SDS011;21818;51.078;12.108;2023-06-26T12:07:47;4.25;;;3.00;;
35699;SDS011;21818;51.078;12.108;2023-06-26T12:10:15;5.75;;;3.15;;
35699;SDS011;21818;51.078;12.108;2023-06-26T12:12:42;5.07;;;2.95;;
35699;SDS011;21818;51.078;12.108;2023-06-26T12:15:08;6.60;;;3.55;;
35699;SDS011;21818;51.078;12.108;2023-06-26T12:17:37;6.15;;;3.55;;
35699;SDS011;21818;51.078;12.108;2023-06-26T12:20:04;4.85;;;3.50;;
35699;SDS011;21818;51.078;12.108;2023-06-26T12:22:34;4.57;;;3.30;;
35699;SDS011;21818;51.078;12.108;2023-06-26T12:25:00;4.47;;;3.13;;
35699;SDS011;21818;51.078;12.108;2023-06-26T12:27:26;4.13;;;3.10;;
35699;SDS011;21818;51.078;12.108;2023-06-26T12:29:53;6.30;;;3.58;;
35699;SDS011;21818;51.078;12.108;2023-06-26T12:32:19;4.45;;;3.13;;
35699;SDS011;21818;51.078;12.108;2023-06-26T12:34:48;6.07;;;3.38;;
35699;SDS011;21818;51.078;12.108;2023-06-26T12:37:15;4.20;;;2.80;;
35699;SDS011;21818;51.078;12.108;2023-06-26T12:39:48;4.50;;;2.97;;
35699;SDS011;21818;51.078;12.108;2023-06-26T12:42:20;5.60;;;3.10;;
35699;SDS011;21818;51.078;12.108;2023-06-26T12:44:50;3.20;;;2.45;;
35699;SDS011;21818;51.078;12.108;2023-06-26T12:47:17;4.93;;;3.30;;
35699;SDS011;21818;51.078;12.108;2023-06-26T12:49:44;5.70;;;3.25;;
35699;SDS011;21818;51.078;12.108;2023-06-26T12:52:14;6.05;;;3.42;;
35699;SDS011;21818;51.078;12.108;2023-06-26T12:54:41;5.68;;;3.42;;
35699;SDS011;21818;51.078;12.108;2023-06-26T12:57:08;4.68;;;3.17;;
35699;SDS011;21818;51.078;12.108;2023-06-26T12:59:35;4.45;;;2.80;;
35699;SDS011;21818;51.078;12.108;2023-06-26T13:02:02;5.47;;;3.10;;
35699;SDS011;21818;51.078;12.108;2023-06-26T13:04:28;3.33;;;2.55;;
35699;SDS011;21818;51.078;12.108;2023-06-26T13:06:54;5.18;;;3.22;;
35699;SDS011;21818;51.078;12.108;2023-06-26T13:09:20;4.38;;;3.10;;
35699;SDS011;21818;51.078;12.108;2023-06-26T13:11:46;4.03;;;2.78;;
35699;SDS011;21818;51.078;12.108;2023-06-26T13:14:12;5.35;;;3.13;;
35699;SDS011;21818;51.078;12.108;2023-06-26T13:16:37;4.15;;;2.88;;
35699;SDS011;21818;51.078;12.108;2023-06-26T13:19:03;4.20;;;3.03;;
35699;SDS011;21818;51.078;12.108;2023-06-26T13:21:29;4.75;;;2.92;;
35699;SDS011;21818;51.078;12.108;2023-06-26T13:23:55;4.05;;;2.65;;
35699;SDS011;21818;51.078;12.108;2023-06-26T13:26:21;3.78;;;2.78;;
35699;SDS011;21818;51.078;12.108;2023-06-26T13:28:48;5.15;;;2.67;;
35699;SDS011;21818;51.078;12.108;2023-06-26T13:31:14;4.50;;;2.90;;
35699;SDS011;21818;51.078;12.108;2023-06-26T13:33:39;4.47;;;2.95;;
35699;SDS011;21818;51.078;12.108;2023-06-26T13:36:05;4.93;;;3.13;;
35699;SDS011;21818;51.078;12.108;2023-06-26T13:38:32;4.85;;;2.70;;
35699;SDS011;21818;51.078;12.108;2023-06-26T13:40:59;4.50;;;2.92;;
35699;SDS011;21818;51.078;12.108;2023-06-26T13:43:25;4.45;;;3.08;;
35699;SDS011;21818;51.078;12.108;2023-06-26T13:45:52;4.13;;;2.53;;
35699;SDS011;21818;51.078;12.108;2023-06-26T13:48:18;4.65;;;2.92;;
35699;SDS011;21818;51.078;12.108;2023-06-26T13:50:43;5.18;;;2.88;;
35699;SDS011;21818;51.078;12.108;2023-06-26T13:53:09;3.65;;;3.00;;
35699;SDS011;21818;51.078;12.108;2023-06-26T13:55:35;4.80;;;2.88;;
35699;SDS011;21818;51.078;12.108;2023-06-26T13:58:02;4.13;;;2.72;;
35699;SDS011;21818;51.078;12.108;2023-06-26T14:00:30;4.32;;;2.95;;
35699;SDS011;21818;51.078;12.108;2023-06-26T14:03:00;4.37;;;2.67;;
35699;SDS011;21818;51.078;12.108;2023-06-26T14:05:26;6.18;;;3.10;;
35699;SDS011;21818;51.078;12.108;2023-06-26T14:07:52;5.10;;;2.83;;
35699;SDS011;21818;51.078;12.108;2023-06-26T14:10:19;4.38;;;2.67;;
35699;SDS011;21818;51.078;12.108;2023-06-26T14:12:45;4.85;;;3.38;;
35699;SDS011;21818;51.078;12.108;2023-06-26T14:15:10;4.60;;;2.83;;
35699;SDS011;21818;51.078;12.108;2023-06-26T14:17:36;4.00;;;3.05;;
35699;SDS011;21818;51.078;12.108;2023-06-26T14:20:05;4.03;;;2.92;;
35699;SDS011;21818;51.078;12.108;2023-06-26T14:22:33;5.72;;;3.22;;
35699;SDS011;21818;51.078;12.108;2023-06-26T14:24:59;4.05;;;2.88;;
35699;SDS011;21818;51.078;12.108;2023-06-26T14:27:24;3.95;;;2.53;;
35699;SDS011;21818;51.078;12.108;2023-06-26T14:29:50;4.43;;;3.00;;
35699;SDS011;21818;51.078;12.108;2023-06-26T14:32:16;11.45;;;5.75;;
35699;SDS011;21818;51.078;12.108;2023-06-26T14:34:41;10.27;;;5.75;;
35699;SDS011;21818;51.078;12.108;2023-06-26T14:37:07;13.40;;;6.20;;
35699;SDS011;21818;51.078;12.108;2023-06-26T14:39:32;9.73;;;6.43;;
35699;SDS011;21818;51.078;12.108;2023-06-26T14:41:58;9.13;;;5.70;;
35699;SDS011;21818;51.078;12.108;2023-06-26T14:44:23;11.10;;;6.72;;